EWG41Z EDDK-LOWK
Flight info
| Callsign | EWG41Z |
|---|---|
| Flight time | N/A |
| Altitude | 35000 |
| Route | KUMIK7K KUMIK L603 TESGA DCT ESATI DCT DETEV DCT DINKU DCT BESNI DCT LATLO DCT OBEDI DCT TISMA TISMA2A |
| Aircraft | A319/M-SDE3FGHIRWY/LB1 |
Departure
| Time | N/A |
|---|---|
| Airport | Cologne Bonn Airport (EDDK) |
Arrival
| Time | 2026-04-28 16:50 |
|---|---|
| Airport | Klagenfurt Airport (LOWK) |
| Time | Latitude | Longitude | Altitude | Speed | Heading |
|---|---|---|---|---|---|
| 2026-04-28 16:40 | 46.85645 | 13.49237 | 16298 ft | 320 kts | 167° |
| 2026-04-28 16:40 | 46.83488 | 13.49974 | 15883 ft | 318 kts | 167° |
| 2026-04-28 16:40 | 46.81355 | 13.50821 | 15521 ft | 317 kts | 159° |
| 2026-04-28 16:41 | 46.79453 | 13.52413 | 15163 ft | 316 kts | 141° |
| 2026-04-28 16:41 | 46.77946 | 13.54744 | 14745 ft | 318 kts | 125° |
| 2026-04-28 16:41 | 46.76967 | 13.57646 | 14203 ft | 323 kts | 107° |
| 2026-04-28 16:41 | 46.76502 | 13.60869 | 13667 ft | 325 kts | 101° |
| 2026-04-28 16:42 | 46.76093 | 13.64040 | 13150 ft | 319 kts | 101° |
| 2026-04-28 16:42 | 46.75679 | 13.67181 | 12640 ft | 313 kts | 101° |
| 2026-04-28 16:42 | 46.75266 | 13.70272 | 12141 ft | 308 kts | 101° |
| 2026-04-28 16:42 | 46.74854 | 13.73337 | 11600 ft | 308 kts | 101° |
| 2026-04-28 16:43 | 46.74446 | 13.76377 | 11066 ft | 303 kts | 101° |
| 2026-04-28 16:43 | 46.74048 | 13.79358 | 10570 ft | 297 kts | 101° |
| 2026-04-28 16:43 | 46.73655 | 13.82287 | 10098 ft | 291 kts | 101° |
| 2026-04-28 16:43 | 46.73270 | 13.85146 | 9613 ft | 285 kts | 101° |
| 2026-04-28 16:44 | 46.72890 | 13.87952 | 9173 ft | 279 kts | 102° |
| 2026-04-28 16:44 | 46.72519 | 13.90682 | 8750 ft | 271 kts | 102° |
| 2026-04-28 16:44 | 46.72162 | 13.93322 | 8280 ft | 266 kts | 102° |
| 2026-04-28 16:44 | 46.71797 | 13.95944 | 7826 ft | 260 kts | 103° |
| 2026-04-28 16:45 | 46.71354 | 13.98463 | 7396 ft | 254 kts | 106° |
| 2026-04-28 16:45 | 46.70868 | 14.00919 | 6955 ft | 251 kts | 107° |
| 2026-04-28 16:45 | 46.70372 | 14.03345 | 6503 ft | 248 kts | 107° |
| 2026-04-28 16:45 | 46.69880 | 14.05740 | 6060 ft | 244 kts | 107° |
| 2026-04-28 16:46 | 46.69412 | 14.08040 | 5638 ft | 231 kts | 107° |
| 2026-04-28 16:46 | 46.68972 | 14.10220 | 5238 ft | 219 kts | 107° |
| 2026-04-28 16:46 | 46.68558 | 14.12285 | 4896 ft | 206 kts | 107° |
| 2026-04-28 16:46 | 46.68166 | 14.14251 | 4502 ft | 197 kts | 107° |
| 2026-04-28 16:47 | 46.67790 | 14.16129 | 4155 ft | 189 kts | 107° |
| 2026-04-28 16:47 | 46.67430 | 14.17925 | 3825 ft | 181 kts | 107° |
| 2026-04-28 16:47 | 46.67089 | 14.19620 | 3542 ft | 168 kts | 107° |
| 2026-04-28 16:47 | 46.66766 | 14.21220 | 3208 ft | 162 kts | 107° |
| 2026-04-28 16:48 | 46.66457 | 14.22765 | 2966 ft | 160 kts | 107° |
| 2026-04-28 16:48 | 46.66143 | 14.24334 | 2732 ft | 159 kts | 107° |
| 2026-04-28 16:48 | 46.65839 | 14.25854 | 2480 ft | 156 kts | 107° |
| 2026-04-28 16:48 | 46.65542 | 14.27337 | 2223 ft | 147 kts | 107° |
| 2026-04-28 16:49 | 46.65259 | 14.28743 | 2005 ft | 143 kts | 107° |
| 2026-04-28 16:49 | 46.64985 | 14.30110 | 1817 ft | 142 kts | 107° |
| 2026-04-28 16:49 | 46.64713 | 14.31486 | 1652 ft | 141 kts | 107° |
| 2026-04-28 16:49 | 46.64436 | 14.32848 | 1475 ft | 132 kts | 107° |
| 2026-04-28 16:50 | 46.64218 | 14.33929 | 1466 ft | 87 kts | 107° |
| 2026-04-28 16:50 | 46.64087 | 14.34565 | 1462 ft | 54 kts | 105° |
| 2026-04-28 16:50 | 46.63989 | 14.35071 | 1457 ft | 48 kts | 106° |
| 2026-04-28 16:50 | 46.63918 | 14.35426 | 1462 ft | 20 kts | 105° |
| 2026-04-28 16:51 | 46.63932 | 14.35395 | 1459 ft | 11 kts | 257° |
| 2026-04-28 16:51 | 46.63958 | 14.35249 | 1457 ft | 20 kts | 282° |
| 2026-04-28 16:51 | 46.64003 | 14.35021 | 1457 ft | 27 kts | 287° |
| 2026-04-28 16:51 | 46.64062 | 14.34720 | 1458 ft | 35 kts | 287° |
| 2026-04-28 16:52 | 46.64135 | 14.34353 | 1464 ft | 41 kts | 285° |
| 2026-04-28 16:52 | 46.64223 | 14.33923 | 1466 ft | 48 kts | 286° |
| 2026-04-28 16:52 | 46.64317 | 14.33453 | 1465 ft | 47 kts | 287° |
| 2026-04-28 16:52 | 46.64404 | 14.33030 | 1465 ft | 27 kts | 288° |
| 2026-04-28 16:53 | 46.64510 | 14.32852 | 1469 ft | 24 kts | 333° |
| 2026-04-28 16:53 | 46.64627 | 14.32752 | 1475 ft | 17 kts | 317° |
| 2026-04-28 16:53 | 46.64721 | 14.32659 | 1474 ft | 15 kts | 344° |
| 2026-04-28 16:53 | 46.64780 | 14.32633 | 1471 ft | 8 kts | 343° |
| 2026-04-28 16:54 | 46.64840 | 14.32608 | 1473 ft | 10 kts | 344° |
| 2026-04-28 16:54 | 46.64878 | 14.32517 | 1474 ft | 11 kts | 273° |
| 2026-04-28 16:54 | 46.64824 | 14.32471 | 1475 ft | 12 kts | 169° |
| 2026-04-28 16:54 | 46.64798 | 14.32498 | 1476 ft | 6 kts | 103° |
| 2026-04-28 16:55 | 46.64775 | 14.32511 | 1480 ft | 3 kts | 149° |
| 2026-04-28 16:55 | 46.64773 | 14.32537 | 1479 ft | 0 kts | 78° |